Time;durP1;ratioP1;P1;durP2;ratioP2;P2;SDS_P1;SDS_P2;PMS_P1;PMS_P2;Temp;Humidity;BMP_temperature;BMP_pressure;BME280_temperature;BME280_humidity;BME280_pressure;Samples;Min_cycle;Max_cycle;Signal;HPM_P1;HPM_P2
2022/05/12 00:00:25;;;;;;;16.25;3.65;;;18.50;99.90;;;18.51;100.00;100151.47;4955537;28;20233;-67
2022/05/12 00:02:53;;;;;;;15.30;3.30;;;18.50;99.90;;;18.63;100.00;100158.31;4969388;28;20223;-66
2022/05/12 00:05:21;;;;;;;13.18;2.85;;;18.40;99.90;;;18.44;100.00;100141.88;4947175;28;20201;-66
2022/05/12 00:07:51;;;;;;;14.52;3.10;;;18.40;99.90;;;18.37;100.00;100145.63;4969711;28;20196;-66
2022/05/12 00:10:22;;;;;;;11.10;2.35;;;18.40;99.90;;;18.50;100.00;100147.06;4938012;28;20697;-66
2022/05/12 00:12:51;;;;;;;17.02;3.72;;;18.30;99.90;;;18.54;100.00;100148.72;4965987;28;20204;-67
2022/05/12 00:15:24;;;;;;;16.55;3.58;;;18.30;99.90;;;18.71;100.00;100146.47;4991767;28;20224;-66
2022/05/12 00:17:53;;;;;;;8.32;1.80;;;18.40;99.90;;;18.31;100.00;100135.97;4975009;28;20213;-67
2022/05/12 00:20:22;;;;;;;17.38;3.65;;;18.40;99.90;;;18.44;100.00;100136.50;4957642;28;20709;-67
2022/05/12 00:22:51;;;;;;;11.63;2.50;;;18.30;99.90;;;18.50;100.00;100145.25;4960906;28;20221;-67
2022/05/12 00:25:23;;;;;;;12.27;2.63;;;18.30;99.90;;;18.36;100.00;100151.91;4972099;28;20202;-67
2022/05/12 00:27:51;;;;;;;13.05;2.83;;;18.30;99.90;;;18.38;100.00;100152.75;4972567;28;20209;-67
2022/05/12 00:30:19;;;;;;;16.08;3.70;;;18.30;99.90;;;18.32;100.00;100160.94;4932688;28;20236;-67
2022/05/12 00:32:47;;;;;;;12.82;2.67;;;18.20;99.90;;;18.34;100.00;100159.09;4924206;28;20216;-67
2022/05/12 00:35:16;;;;;;;15.13;3.30;;;18.20;99.90;;;18.44;100.00;100156.13;4940601;28;20203;-67
2022/05/12 00:37:45;;;;;;;15.75;3.33;;;18.20;99.90;;;18.53;100.00;100134.44;4944677;28;20677;-67
2022/05/12 00:40:15;;;;;;;14.32;3.13;;;18.20;99.90;;;18.52;100.00;100118.44;4954533;28;20232;-67
2022/05/12 00:43:01;;;;;;;14.15;2.97;;;18.10;99.90;;;18.58;100.00;100123.59;4957133;28;20221;-67
2022/05/12 00:45:35;;;;;;;16.95;3.35;;;18.10;99.90;;;18.50;100.00;100106.88;4972525;28;20216;-67
2022/05/12 00:48:05;;;;;;;21.48;4.72;;;18.10;99.90;;;18.57;100.00;100095.06;4968659;28;20679;-67
2022/05/12 00:50:40;;;;;;;14.25;2.95;;;18.10;99.90;;;19.03;98.31;100075.84;4986558;28;20228;-67
2022/05/12 00:53:11;;;;;;;19.13;4.10;;;18.30;99.90;;;18.85;98.29;100041.59;4939840;28;20212;-67
2022/05/12 00:55:42;;;;;;;13.63;2.80;;;18.30;99.90;;;18.75;100.00;100053.50;4941240;28;20215;-67
2022/05/12 00:58:14;;;;;;;13.55;2.75;;;18.30;99.90;;;18.49;100.00;100057.81;4957128;28;20208;-67
2022/05/12 01:00:42;;;;;;;12.00;2.72;;;18.30;99.90;;;18.51;100.00;100066.66;4956298;28;20233;-67
2022/05/12 01:03:16;;;;;;;16.20;3.55;;;18.20;99.90;;;18.46;100.00;100079.31;4972726;28;20224;-67
2022/05/12 01:05:45;;;;;;;13.43;2.78;;;18.20;99.90;;;18.74;99.66;100082.09;4953710;28;20684;-67
2022/05/12 01:08:17;;;;;;;14.82;3.30;;;18.20;99.90;;;18.46;100.00;100081.13;4939974;28;20217;-67
2022/05/12 01:10:53;;;;;;;14.10;3.00;;;18.20;99.90;;;18.51;100.00;100081.84;4970970;28;22253;-66
2022/05/12 01:13:28;;;;;;;12.48;2.75;;;18.10;99.90;;;18.51;100.00;100090.78;4955981;28;20197;-67
2022/05/12 01:16:02;;;;;;;13.20;2.75;;;18.10;99.90;;;18.39;100.00;100111.66;4956492;28;20211;-66
2022/05/12 01:18:33;;;;;;;14.88;3.08;;;18.10;99.90;;;18.34;100.00;100114.47;4973391;28;20228;-67
2022/05/12 01:21:01;;;;;;;11.98;2.50;;;18.00;99.90;;;18.21;100.00;100107.69;4940787;28;20212;-67
2022/05/12 01:23:39;;;;;;;11.52;2.38;;;18.00;99.90;;;18.04;100.00;100129.53;4972265;28;20228;-67
2022/05/12 01:26:15;;;;;;;16.13;3.60;;;18.00;99.90;;;18.29;100.00;100137.81;4971673;28;20672;-67
2022/05/12 01:28:44;;;;;;;17.70;3.70;;;17.90;99.90;;;18.39;100.00;100130.41;4945882;28;20215;-67
2022/05/12 01:31:17;;;;;;;16.02;3.55;;;17.90;99.90;;;18.36;100.00;100134.03;4957121;28;20204;-67
2022/05/12 01:33:46;;;;;;;16.25;3.45;;;17.90;99.90;;;18.29;100.00;100131.56;4955688;28;20313;-67
2022/05/12 01:36:13;;;;;;;9.40;2.10;;;17.90;99.90;;;18.37;100.00;100134.91;4941883;28;20217;-67
2022/05/12 01:38:42;;;;;;;16.75;3.47;;;17.90;99.90;;;18.64;97.40;100136.84;4940988;28;20205;-67
2022/05/12 01:41:09;;;;;;;15.43;3.22;;;18.00;99.90;;;18.59;96.84;100121.81;4958770;28;20216;-67
2022/05/12 01:43:37;;;;;;;19.75;4.15;;;18.00;99.90;;;18.42;99.18;100128.53;4973234;28;20217;-67
2022/05/12 01:46:05;;;;;;;9.30;2.10;;;18.00;99.90;;;18.38;99.66;100128.66;4971396;28;20224;-67
2022/05/12 01:48:33;;;;;;;12.05;2.65;;;18.00;99.90;;;18.36;99.72;100133.16;4957232;28;20228;-67
2022/05/12 01:51:03;;;;;;;13.77;2.78;;;18.00;99.90;;;18.33;99.44;100135.94;4972186;28;20204;-67
2022/05/12 01:53:31;;;;;;;13.52;2.75;;;18.00;99.90;;;18.17;100.00;100136.31;4968015;28;20220;-67
2022/05/12 01:56:00;;;;;;;12.60;2.63;;;17.90;99.90;;;18.00;100.00;100146.59;4952762;28;20207;-67
2022/05/12 01:58:27;;;;;;;13.45;2.97;;;17.80;99.90;;;18.22;100.00;100160.31;4976012;28;20200;-67
2022/05/12 02:00:55;;;;;;;13.85;2.80;;;17.80;99.90;;;18.17;100.00;100152.38;4941613;28;20201;-67
2022/05/12 02:03:24;;;;;;;12.35;2.63;;;17.90;99.90;;;18.00;100.00;100156.41;4956989;28;20651;-67
2022/05/12 02:05:52;;;;;;;14.75;3.10;;;17.80;99.90;;;17.80;100.00;100168.50;4972321;28;20223;-67
2022/05/12 02:08:20;;;;;;;11.15;2.35;;;17.70;99.90;;;17.74;100.00;100189.16;4969601;28;20217;-67
2022/05/12 02:10:50;;;;;;;13.60;2.97;;;17.60;99.90;;;17.95;100.00;100204.69;4950894;28;20229;-66
2022/05/12 02:13:21;;;;;;;14.13;2.85;;;17.60;99.90;;;17.82;100.00;100193.41;4950528;28;20235;-67
2022/05/12 02:15:50;;;;;;;10.15;2.10;;;17.50;99.90;;;17.80;100.00;100208.59;4939796;28;20213;-67
2022/05/12 02:18:20;;;;;;;14.68;3.22;;;17.50;99.90;;;17.79;100.00;100205.97;4956427;28;20215;-67
2022/05/12 02:20:48;;;;;;;14.10;3.08;;;17.50;99.90;;;17.67;100.00;100224.97;4939199;28;20235;-67
2022/05/12 02:23:17;;;;;;;18.58;3.97;;;17.40;99.90;;;17.68;100.00;100232.09;4968702;28;20220;-67
2022/05/12 02:25:45;;;;;;;15.32;3.30;;;17.40;99.90;;;17.73;100.00;100236.41;4973175;28;20212;-67
2022/05/12 02:28:14;;;;;;;16.23;3.40;;;17.40;99.90;;;17.81;100.00;100255.84;4949391;28;20213;-67
2022/05/12 02:30:42;;;;;;;12.88;2.63;;;17.40;99.90;;;17.82;100.00;100268.28;4970303;28;20228;-67
2022/05/12 02:33:11;;;;;;;9.40;2.00;;;17.40;99.90;;;17.87;100.00;100269.06;4954416;28;20219;-67
2022/05/12 02:35:39;;;;;;;1.63;0.47;;;17.40;99.90;;;17.75;100.00;100258.66;4941034;28;20213;-67
2022/05/12 02:38:09;;;;;;;17.90;3.75;;;17.40;99.90;;;17.64;100.00;100282.06;4969252;28;20224;-67
2022/05/12 02:40:37;;;;;;;11.48;2.40;;;17.40;99.90;;;17.58;100.00;100283.06;4938245;28;20244;-67
2022/05/12 02:43:24;;;;;;;16.00;3.30;;;17.30;99.90;;;17.52;100.00;100303.72;4955100;28;20236;-67
2022/05/12 02:45:57;;;;;;;16.02;3.40;;;17.30;99.90;;;17.50;100.00;100313.56;4955734;28;20201;-67
2022/05/12 02:48:30;;;;;;;15.82;3.42;;;17.20;99.90;;;17.44;100.00;100313.69;4971292;28;20204;-67
2022/05/12 02:50:58;;;;;;;15.85;3.40;;;17.20;99.90;;;17.31;100.00;100325.56;4972025;28;20208;-67
2022/05/12 02:53:28;;;;;;;15.48;3.25;;;17.10;99.90;;;17.25;100.00;100332.78;4972171;28;20573;-67
2022/05/12 02:55:59;;;;;;;15.68;3.35;;;17.10;99.90;;;17.15;100.00;100344.56;4952240;28;20208;-67
2022/05/12 02:58:28;;;;;;;10.77;2.50;;;17.10;99.90;;;17.02;100.00;100364.41;4954688;28;20223;-67
2022/05/12 03:00:57;;;;;;;11.98;2.80;;;17.00;99.90;;;17.10;100.00;100383.84;4954399;28;20208;-67
2022/05/12 03:03:26;;;;;;;16.92;3.58;;;16.90;99.90;;;17.18;100.00;100383.72;4972146;28;20719;-66
2022/05/12 03:05:55;;;;;;;12.07;2.83;;;16.90;99.90;;;17.20;100.00;100392.56;4968685;28;20223;-67
2022/05/12 03:08:24;;;;;;;16.08;3.67;;;16.90;99.90;;;17.11;100.00;100387.41;4946635;28;20223;-67
2022/05/12 03:10:51;;;;;;;9.85;2.17;;;16.90;99.90;;;17.08;100.00;100395.47;4951634;28;20224;-67
2022/05/12 03:13:21;;;;;;;13.68;2.88;;;16.80;99.90;;;17.07;100.00;100405.28;4972118;28;20208;-67
2022/05/12 03:15:49;;;;;;;15.50;3.20;;;16.80;99.90;;;17.10;100.00;100407.00;4955570;28;20208;-66
2022/05/12 03:18:18;;;;;;;14.55;3.03;;;16.80;99.90;;;17.09;100.00;100407.91;4955549;28;20216;-66
2022/05/12 03:20:46;;;;;;;16.98;3.67;;;16.80;99.90;;;17.15;100.00;100415.81;4979315;28;20228;-67
2022/05/12 03:23:22;;;;;;;13.70;2.88;;;16.80;99.90;;;17.11;100.00;100415.00;4957403;28;20232;-67
2022/05/12 03:25:52;;;;;;;17.98;3.85;;;16.80;99.90;;;17.06;100.00;100418.66;4970499;28;20212;-66
2022/05/12 03:28:21;;;;;;;18.60;3.58;;;16.80;99.90;;;16.93;100.00;100424.22;4955354;28;20211;-67
2022/05/12 03:30:50;;;;;;;15.57;3.15;;;16.70;99.90;;;16.98;100.00;100444.63;4961806;28;20223;-67
2022/05/12 03:33:19;;;;;;;10.40;2.17;;;16.70;99.90;;;16.99;100.00;100454.41;4942288;28;20216;-67
2022/05/12 03:35:47;;;;;;;12.77;2.90;;;16.70;99.90;;;16.92;100.00;100459.84;4955560;28;20200;-67
2022/05/12 03:38:15;;;;;;;7.32;1.60;;;16.70;99.90;;;16.85;100.00;100463.50;4975963;28;20701;-67
2022/05/12 03:40:43;;;;;;;12.23;2.53;;;16.60;99.90;;;17.11;100.00;100479.13;4967740;28;20225;-66
2022/05/12 03:44:46;;;;;;;11.98;2.47;;;16.60;99.90;;;17.11;100.00;100480.94;4937366;28;20212;-67
2022/05/12 03:46:00;;;;;;;11.73;2.40;;;16.70;99.90;;;16.97;100.00;100467.78;4929233;28;20583;-67
2022/05/12 03:48:28;;;;;;;11.32;2.35;;;16.70;99.90;;;16.94;100.00;100479.41;4928327;28;20205;-67
2022/05/12 03:50:56;;;;;;;7.53;1.58;;;16.60;99.90;;;16.92;100.00;100483.03;4957644;28;20212;-67
2022/05/12 03:53:27;;;;;;;13.40;2.72;;;16.60;99.90;;;16.90;100.00;100491.06;4960806;28;20206;-67
2022/05/12 03:55:55;;;;;;;14.48;2.90;;;16.60;99.90;;;16.84;100.00;100504.47;4954566;28;20212;-67
2022/05/12 03:58:23;;;;;;;19.17;4.15;;;16.60;99.90;;;16.90;100.00;100516.84;4982881;28;20202;-67
2022/05/12 04:00:52;;;;;;;16.80;3.63;;;16.60;99.90;;;17.01;100.00;100532.75;4969309;28;20243;-67
2022/05/12 04:03:21;;;;;;;13.20;2.92;;;16.60;99.90;;;17.07;100.00;100544.22;4946310;28;20204;-67
2022/05/12 04:05:49;;;;;;;11.77;2.50;;;16.60;99.90;;;17.02;100.00;100542.53;4957564;28;20220;-67
2022/05/12 04:08:17;;;;;;;9.77;2.00;;;16.60;99.90;;;16.94;100.00;100538.19;4951056;28;20205;-67
2022/05/12 04:10:45;;;;;;;15.48;3.33;;;16.60;99.90;;;16.98;100.00;100551.50;4940501;28;20229;-67
2022/05/12 04:13:12;;;;;;;15.27;3.13;;;16.60;99.90;;;16.97;100.00;100547.06;4943498;28;20197;-67
2022/05/12 04:15:40;;;;;;;4.47;1.02;;;16.60;99.90;;;16.95;100.00;100558.66;4960390;28;20215;-66
2022/05/12 04:18:09;;;;;;;22.10;4.40;;;16.60;99.90;;;16.87;100.00;100562.31;4976592;28;20216;-67
2022/05/12 04:20:37;;;;;;;18.17;3.67;;;16.60;99.90;;;16.91;100.00;100564.06;4960730;28;20235;-67
2022/05/12 04:23:05;;;;;;;20.23;4.32;;;16.60;99.90;;;16.90;100.00;100568.53;4970716;28;20212;-67
2022/05/12 04:25:33;;;;;;;21.77;4.75;;;16.60;99.90;;;16.90;100.00;100579.22;4952517;28;20609;-67
2022/05/12 04:28:03;;;;;;;20.67;4.35;;;16.60;99.90;;;16.85;100.00;100586.38;4947893;28;20220;-67
2022/05/12 04:30:32;;;;;;;15.90;3.17;;;16.60;99.90;;;16.86;100.00;100596.16;4957105;28;20225;-67
2022/05/12 04:35:11;;;;;;;25.85;5.95;;;16.60;99.90;;;17.02;100.00;100610.19;4971344;28;20683;-66
2022/05/12 04:35:48;;;;;;;17.35;3.63;;;16.60;99.90;;;17.06;100.00;100613.72;4974273;28;20223;-67
2022/05/12 04:38:17;;;;;;;14.45;3.10;;;16.60;99.90;;;17.07;100.00;100612.81;4941780;28;20213;-67
2022/05/12 04:40:45;;;;;;;16.70;3.40;;;16.60;99.90;;;17.08;100.00;100618.13;4953490;28;20228;-66
2022/05/12 04:43:12;;;;;;;19.10;3.90;;;16.60;99.90;;;17.01;100.00;100612.91;4956857;28;20201;-67
2022/05/12 04:45:40;;;;;;;18.95;3.85;;;16.70;99.90;;;17.04;100.00;100615.53;4971751;28;20724;-67
2022/05/12 04:48:10;;;;;;;13.88;2.80;;;16.70;99.90;;;17.06;100.00;100622.63;4952921;28;20209;-67
2022/05/12 04:50:42;;;;;;;17.77;3.75;;;16.70;99.90;;;17.04;100.00;100626.22;4955402;28;20217;-67
2022/05/12 04:53:10;;;;;;;19.42;4.30;;;16.70;99.90;;;17.11;100.00;100631.44;4948579;28;20209;-66
2022/05/12 04:55:38;;;;;;;17.63;3.72;;;16.70;99.90;;;17.08;100.00;100630.63;4976624;28;20227;-67
2022/05/12 04:58:06;;;;;;;8.18;1.75;;;16.70;99.90;;;17.12;100.00;100638.56;4956176;28;20209;-67
2022/05/12 05:00:41;;;;;;;16.20;3.40;;;16.70;99.90;;;17.13;100.00;100647.47;4955760;28;20606;-67
2022/05/12 05:03:11;;;;;;;16.02;3.20;;;16.80;99.90;;;17.21;100.00;100654.47;4971701;28;20212;-66
2022/05/12 05:05:47;;;;;;;8.68;1.92;;;16.80;99.90;;;17.20;100.00;100667.84;4971566;28;20224;-66
2022/05/12 05:08:20;;;;;;;17.70;3.53;;;16.80;99.90;;;17.23;100.00;100681.16;4940093;28;20205;-66
2022/05/12 05:10:49;;;;;;;15.68;3.25;;;16.90;99.90;;;17.34;100.00;100686.34;4956511;28;20240;-66
2022/05/12 05:13:18;;;;;;;14.32;3.17;;;16.90;99.90;;;17.34;100.00;100689.91;4956679;28;20244;-66
2022/05/12 05:15:48;;;;;;;17.63;3.67;;;16.90;99.90;;;17.37;100.00;100702.34;4970975;28;20201;-66
2022/05/12 05:18:18;;;;;;;17.00;3.40;;;17.00;99.90;;;17.48;100.00;100714.66;4946511;28;20210;-66
2022/05/12 05:20:47;;;;;;;24.13;5.45;;;17.00;99.90;;;17.55;100.00;100718.13;4970192;28;20224;-67
2022/05/12 05:23:15;;;;;;;20.33;4.05;;;17.00;99.90;;;17.58;100.00;100723.41;4926165;28;20216;-67
2022/05/12 05:25:43;;;;;;;18.88;3.97;;;17.10;99.90;;;17.68;100.00;100732.22;4940159;28;20575;-66
2022/05/12 05:28:13;;;;;;;12.05;2.63;;;17.20;99.90;;;17.82;100.00;100744.47;4956289;28;20911;-67
2022/05/12 05:30:41;;;;;;;16.85;3.45;;;17.20;99.90;;;17.93;100.00;100752.34;4958094;28;20228;-66
2022/05/12 05:33:10;;;;;;;17.50;3.50;;;17.30;99.90;;;18.02;100.00;100753.97;4946275;28;20253;-66
2022/05/12 05:35:38;;;;;;;16.92;3.42;;;17.40;99.90;;;18.20;100.00;100761.69;4971999;28;20661;-66
2022/05/12 05:38:06;;;;;;;16.08;3.28;;;17.50;99.90;;;18.33;100.00;100770.44;4973507;28;20208;-67
2022/05/12 05:40:35;;;;;;;16.42;3.22;;;17.70;99.90;;;18.36;100.00;100757.00;4954446;28;20233;-66
2022/05/12 05:43:04;;;;;;;17.90;3.60;;;17.80;99.90;;;18.40;100.00;100756.03;4991036;28;20217;-66
2022/05/12 05:45:33;;;;;;;18.50;3.72;;;17.90;99.90;;;18.47;100.00;100753.22;4956739;28;20225;-67
2022/05/12 05:48:05;;;;;;;20.77;4.15;;;17.90;99.90;;;18.42;100.00;100728.31;4970089;28;20700;-67
2022/05/12 05:53:26;;;;;;;12.60;2.55;;;18.00;99.90;;;18.49;100.00;100729.06;4974996;28;20205;-67
2022/05/12 05:55:58;;;;;;;13.80;3.05;;;18.10;99.90;;;18.57;100.00;100727.13;4972512;28;20219;-66
2022/05/12 05:58:28;;;;;;;12.38;2.60;;;18.10;99.90;;;18.64;100.00;100734.19;4949376;28;20216;-67
2022/05/12 06:00:56;;;;;;;16.33;3.20;;;18.20;99.90;;;18.64;100.00;100734.19;4990020;28;20209;-67
2022/05/12 06:03:25;;;;;;;16.23;3.25;;;18.20;99.90;;;18.68;100.00;100735.88;4975819;28;20204;-67
2022/05/12 06:05:55;;;;;;;11.82;2.47;;;18.30;99.90;;;18.70;100.00;100723.34;4940859;28;20237;-67
2022/05/12 06:08:23;;;;;;;16.83;3.40;;;18.30;99.90;;;18.67;100.00;100707.31;4978448;28;20215;-66
2022/05/12 06:11:03;;;;;;;8.77;1.95;;;18.30;99.90;;;18.86;100.00;100726.59;4940660;28;20197;-66
2022/05/12 06:13:33;;;;;;;19.50;4.25;;;18.40;99.90;;;19.02;100.00;100730.72;4971024;28;20684;-67
2022/05/12 06:16:04;;;;;;;14.43;2.92;;;18.60;99.90;;;19.00;100.00;100708.44;4965138;28;20213;-66
2022/05/12 06:18:34;;;;;;;14.20;2.75;;;18.70;99.90;;;19.16;100.00;100700.94;4963344;28;20208;-66
2022/05/12 06:21:04;;;;;;;21.65;4.63;;;18.80;99.90;;;19.19;99.37;100684.78;4963168;28;20684;-66
2022/05/12 06:23:32;;;;;;;15.57;3.45;;;18.80;99.90;;;19.28;100.00;100695.31;4950927;28;20224;-67
2022/05/12 06:26:00;;;;;;;19.45;3.92;;;18.90;99.90;;;19.32;100.00;100702.38;4966745;28;20223;-67
2022/05/12 06:28:28;;;;;;;20.70;4.32;;;19.00;99.90;;;19.40;100.00;100716.47;4949786;28;20221;-67
2022/05/12 06:30:56;;;;;;;18.48;3.90;;;19.10;99.90;;;19.31;100.00;100680.94;4952329;28;20208;-67
2022/05/12 06:33:24;;;;;;;27.90;5.72;;;19.10;99.90;;;19.25;99.15;100665.88;4969638;28;20196;-67
2022/05/12 06:35:55;;;;;;;13.07;2.67;;;19.10;99.90;;;19.34;100.00;100678.19;4967625;28;20209;-66
2022/05/12 06:38:23;;;;;;;18.33;3.90;;;19.20;99.90;;;19.25;99.87;100673.03;4956028;28;20217;-67
2022/05/12 06:40:53;;;;;;;17.05;3.63;;;19.20;99.90;;;19.22;99.09;100663.28;4954933;28;20236;-67
2022/05/12 06:43:23;;;;;;;20.95;4.25;;;19.10;99.90;;;19.16;98.26;100658.94;4970697;28;20219;-67
2022/05/12 06:45:55;;;;;;;17.13;3.75;;;19.10;99.90;;;19.23;97.48;100653.44;4953651;28;20229;-67
2022/05/12 06:48:24;;;;;;;15.32;3.15;;;19.10;99.90;;;19.15;99.73;100672.38;4954061;28;20224;-67
2022/05/12 06:50:53;;;;;;;28.83;6.00;;;19.10;99.90;;;19.15;99.70;100673.25;4960170;28;20228;-67
2022/05/12 06:53:21;;;;;;;15.85;3.30;;;19.20;99.90;;;19.20;98.83;100665.09;4968593;28;20231;-67
2022/05/12 06:55:49;;;;;;;14.32;3.22;;;19.10;99.90;;;19.14;99.04;100668.81;4935232;28;20570;-67
2022/05/12 06:58:17;;;;;;;19.55;4.00;;;19.10;99.90;;;19.12;99.58;100678.69;4968031;28;20220;-67
2022/05/12 07:00:46;;;;;;;16.75;3.47;;;19.10;99.90;;;19.09;99.16;100660.00;4972682;28;20602;-67
2022/05/12 07:03:16;;;;;;;18.58;3.80;;;19.10;99.90;;;19.14;100.00;100679.53;4935478;28;20215;-67
2022/05/12 07:05:44;;;;;;;16.20;3.38;;;19.10;99.90;;;19.20;99.83;100686.56;4955376;28;20240;-67
2022/05/12 07:08:13;;;;;;;21.90;4.65;;;19.20;99.90;;;19.10;99.44;100671.59;4933105;28;20215;-67
2022/05/12 07:10:41;;;;;;;16.77;3.47;;;19.20;99.90;;;19.12;98.89;100664.41;4950237;28;20224;-67
2022/05/12 07:13:10;;;;;;;15.80;3.42;;;19.10;99.90;;;19.13;98.03;100658.13;4951880;28;20617;-67
2022/05/12 07:15:38;;;;;;;18.20;3.67;;;19.20;99.90;;;19.20;98.71;100670.47;4973529;28;20255;-67
2022/05/12 07:18:07;;;;;;;22.27;4.60;;;19.20;99.90;;;19.15;96.87;100651.81;4969690;28;20577;-67
2022/05/12 07:26:55;;;;;;;11.13;2.35;;;19.30;99.90;;;19.29;95.99;100646.13;4977329;28;20228;-67
2022/05/12 07:28:57;;;;;;;13.65;2.88;;;19.20;99.90;;;19.22;95.08;100631.09;4958635;28;20229;-67
2022/05/12 07:31:25;;;;;;;17.33;3.63;;;19.30;99.90;;;19.29;94.49;100630.03;4975785;28;20649;-67
2022/05/12 07:33:54;;;;;;;14.10;3.20;;;19.30;99.90;;;19.27;94.37;100628.31;4960094;28;20673;-66
2022/05/12 07:36:26;;;;;;;11.25;2.38;;;19.30;99.90;;;19.40;93.54;100630.66;4992506;28;20213;-67
2022/05/12 07:38:57;;;;;;;11.20;2.35;;;19.40;99.90;;;19.24;91.70;100593.53;4976280;28;20232;-67
2022/05/12 07:41:25;;;;;;;10.48;2.28;;;19.40;99.90;;;19.36;91.54;100596.78;4980754;28;20235;-67
2022/05/12 07:43:54;;;;;;;15.90;3.20;;;19.50;99.90;;;19.51;91.27;100606.28;4959459;28;20536;-67
2022/05/12 07:46:29;;;;;;;10.48;2.25;;;19.50;99.90;;;19.52;91.34;100605.41;4976812;28;20247;-67
2022/05/12 07:48:59;;;;;;;14.85;3.22;;;19.60;99.90;;;19.53;91.55;100608.97;4970790;28;20227;-67
2022/05/12 07:51:27;;;;;;;10.98;2.38;;;19.60;99.90;;;19.66;90.75;100599.69;4939858;28;20216;-67
2022/05/12 07:53:55;;;;;;;12.75;2.67;;;19.70;99.90;;;19.74;90.48;100605.75;4957884;28;20201;-67
2022/05/12 07:56:26;;;;;;;11.70;2.40;;;19.80;99.90;;;19.82;88.76;100590.31;4958555;28;20211;-67
2022/05/12 07:58:59;;;;;;;9.75;2.10;;;19.90;99.90;;;19.71;88.86;100565.56;4961129;28;20229;-67
2022/05/12 08:01:28;;;;;;;13.20;2.58;;;19.90;99.90;;;19.75;89.73;100584.25;4961902;28;20211;-67
2022/05/12 08:03:59;;;;;;;9.55;1.98;;;19.80;99.90;;;19.96;89.37;100611.44;4975584;28;20205;-67
2022/05/12 08:06:27;;;;;;;10.38;2.13;;;19.90;99.90;;;20.11;91.40;100613.69;4958757;28;20236;-67
2022/05/12 08:08:57;;;;;;;14.75;3.35;;;20.10;99.90;;;20.26;89.19;100609.72;4953324;28;20225;-67
2022/05/12 08:11:25;;;;;;;29.38;6.63;;;20.20;99.90;;;20.51;87.95;100605.44;4951105;28;20231;-67
2022/05/12 08:13:53;;;;;;;23.65;5.43;;;20.30;99.90;;;20.40;84.66;100545.75;4950051;28;20212;-67
2022/05/12 08:16:21;;;;;;;17.23;4.05;;;20.50;99.90;;;20.39;83.88;100528.78;4981902;28;20284;-67
2022/05/12 08:18:50;;;;;;;8.25;2.03;;;20.50;99.90;;;20.51;82.74;100529.31;4965539;28;20225;-67
2022/05/12 08:21:23;;;;;;;20.00;4.53;;;20.60;99.90;;;20.55;83.52;100529.19;4990008;28;20281;-67
2022/05/12 08:24:12;;;;;;;15.00;3.35;;;20.60;99.90;;;20.72;82.99;100534.91;4949435;28;20214;-67
2022/05/12 08:27:00;;;;;;;24.67;5.22;;;20.70;99.90;;;20.59;81.11;100474.44;4960853;28;20684;-67
2022/05/12 08:29:28;;;;;;;24.95;5.07;;;20.70;99.90;;;20.65;82.07;100473.34;4944099;28;20778;-67
2022/05/12 08:31:56;;;;;;;43.15;38.08;;;20.70;99.90;;;20.54;81.70;100457.56;4947575;28;20208;-67
2022/05/12 08:34:24;;;;;;;21.60;4.85;;;20.80;99.90;;;20.60;80.96;100457.38;4967130;28;20721;-67
2022/05/12 08:36:54;;;;;;;20.08;4.15;;;20.80;99.90;;;20.66;82.56;100472.44;4955316;28;20236;-68
2022/05/12 08:39:22;;;;;;;27.27;5.63;;;20.80;99.90;;;20.67;80.62;100445.50;4957110;28;20236;-68
2022/05/12 08:42:28;;;;;;;20.13;4.28;;;20.80;99.90;;;20.55;79.41;100407.41;4954819;28;20243;-67
2022/05/12 08:44:59;;;;;;;20.05;4.07;;;20.80;99.90;;;20.98;80.58;100458.84;4957170;28;20217;-67
2022/05/12 08:47:41;;;;;;;17.00;3.53;;;20.90;99.90;;;21.24;78.67;100433.78;4971783;28;20240;-67
2022/05/12 08:50:15;;;;;;;17.88;3.63;;;21.00;99.90;;;21.59;78.58;100462.16;4972208;28;20633;-67
2022/05/12 08:52:49;;;;;;;19.50;4.03;;;21.30;99.90;;;21.96;78.34;100463.50;4956504;28;20223;-67
2022/05/12 08:55:43;;;;;;;16.83;3.47;;;21.60;99.90;;;21.56;77.11;100388.72;4973365;28;20653;-68
2022/05/12 08:58:25;;;;;;;15.73;3.38;;;21.60;99.90;;;21.77;75.94;100389.72;4964042;28;20216;-67
2022/05/12 09:01:02;;;;;;;9.93;2.10;;;21.80;99.90;;;22.36;78.68;100471.00;4971912;28;20208;-67
2022/05/12 09:03:53;;;;;;;13.07;2.70;;;21.90;99.90;;;22.12;75.46;100372.28;4958443;28;20216;-68
2022/05/12 09:06:31;;;;;;;13.30;2.88;;;22.10;99.90;;;22.46;76.05;100413.09;4969595;28;20242;-67
2022/05/12 09:09:54;;;;;;;12.20;2.47;;;22.30;99.90;;;22.01;75.35;100311.59;4958268;28;20227;-68
2022/05/12 09:12:45;;;;;;;15.52;3.42;;;22.40;99.90;;;22.21;74.43;100331.50;4956243;28;20212;-67
2022/05/12 09:15:22;;;;;;;13.48;2.78;;;22.30;99.90;;;22.11;74.44;100305.88;4951809;28;20208;-67
2022/05/12 09:18:06;;;;;;;10.35;2.33;;;22.30;99.90;;;22.68;74.18;100356.50;4952641;28;20208;-67
2022/05/12 09:20:37;;;;;;;13.63;3.00;;;22.50;99.90;;;22.84;73.67;100348.66;4973019;28;20700;-67
2022/05/12 09:23:06;;;;;;;14.80;3.25;;;22.70;99.90;;;22.72;72.90;100300.63;4940538;28;20304;-67
2022/05/12 09:25:38;;;;;;;11.98;2.58;;;22.90;99.90;;;;;;4972323;28;20209;-68
2022/05/12 09:28:37;;;;;;;13.20;2.80;;;23.00;99.90;;;23.33;72.26;100319.53;4972585;28;20700;-68
2022/05/12 09:31:17;;;;;;;16.80;3.63;;;23.30;99.90;;;23.11;72.96;100280.03;4963365;28;20216;-67
2022/05/12 09:33:49;;;;;;;13.25;2.67;;;23.30;99.90;;;22.77;73.03;100236.63;4956945;28;20200;-67
2022/05/12 09:36:29;;;;;;;11.07;2.30;;;23.30;99.90;;;23.22;74.12;100304.72;4941489;28;20207;-67
2022/05/12 09:38:58;;;;;;;16.25;3.65;;;23.30;99.90;;;23.31;73.17;100282.72;4985138;28;20215;-67
2022/05/12 09:41:43;;;;;;;15.55;3.25;;;23.60;99.90;;;23.12;71.20;100224.25;4971413;28;20204;-67
2022/05/12 09:44:24;;;;;;;12.25;2.80;;;23.60;99.90;;;22.75;71.31;100165.72;4954613;28;20204;-67
2022/05/12 09:47:19;;;;;;;8.55;1.77;;;23.40;99.90;;;22.86;71.27;100182.31;4940105;28;20224;-67
2022/05/12 09:49:48;;;;;;;16.85;3.30;;;23.20;99.90;;;23.61;71.90;100264.28;4961204;28;20222;-67
2022/05/12 09:52:36;;;;;;;13.13;2.70;;;23.50;99.90;;;23.68;69.84;100245.97;4947294;28;20193;-68
2022/05/12 09:55:17;;;;;;;14.32;3.17;;;23.80;99.90;;;23.93;70.28;100235.72;4972816;28;20216;-67
2022/05/12 09:58:03;;;;;;;15.90;3.30;;;23.90;99.90;;;23.66;68.90;100164.16;4968374;28;20215;-68
2022/05/12 10:00:36;;;;;;;19.52;4.25;;;24.00;99.90;;;23.44;69.44;100131.03;4955298;28;20227;-68
2022/05/12 10:09:17;;;;;;;15.18;3.20;;;23.90;99.90;;;23.51;67.27;100048.81;4968334;28;20223;-67
2022/05/12 10:11:53;;;;;;;13.65;2.85;;;24.10;99.90;;;24.14;70.25;100160.81;4955546;28;20203;-68
2022/05/12 10:14:41;;;;;;;12.65;2.78;;;24.20;99.90;;;24.15;68.80;100126.59;4972166;28;20202;-67
2022/05/12 10:17:25;;;;;;;12.20;2.60;;;24.60;99.90;;;24.30;69.02;100133.03;4958892;28;20211;-67
2022/05/12 10:19:55;;;;;;;14.93;3.22;;;24.60;99.90;;;24.06;66.87;100055.00;4939051;28;20240;-67
2022/05/12 10:22:43;;;;;;;11.80;2.60;;;24.70;99.90;;;24.51;67.46;100104.88;4970821;28;20219;-68
2022/05/12 10:25:42;;;;;;;10.88;2.53;;;24.80;99.90;;;24.09;67.30;100019.72;4984370;28;20246;-67
2022/05/12 10:28:41;;;;;;;13.15;2.83;;;24.80;99.90;;;24.57;68.71;100099.16;4972871;28;20220;-67
2022/05/12 10:31:35;;;;;;;9.77;2.25;;;24.90;99.90;;;24.60;67.63;100063.84;4939466;28;20212;-67
2022/05/12 10:34:51;;;;;;;10.35;2.28;;;25.00;99.90;;;24.56;66.09;100038.78;4987737;28;20687;-67
2022/05/12 10:38:07;;;;;;;11.18;2.47;;;25.00;99.90;;;24.28;66.17;99970.13;4963902;28;20667;-67